createdAt,value
2023-03-02T00:01:57.395Z,18.94
2023-03-02T00:04:29.970Z,18.94
2023-03-02T00:07:09.182Z,18.93
2023-03-02T00:09:38.494Z,18.92
2023-03-02T00:12:08.161Z,18.93
2023-03-02T00:14:38.163Z,18.92
2023-03-02T00:17:07.833Z,18.92
2023-03-02T00:19:36.605Z,18.91
2023-03-02T00:22:05.112Z,18.93
2023-03-02T00:24:33.707Z,18.92
2023-03-02T00:27:02.127Z,18.92
2023-03-02T00:29:30.486Z,18.91
2023-03-02T00:32:00.360Z,18.91
2023-03-02T00:34:32.196Z,18.91
2023-03-02T00:37:00.578Z,18.91
2023-03-02T00:39:30.268Z,18.90
2023-03-02T00:41:58.690Z,18.90
2023-03-02T00:44:27.091Z,18.90
2023-03-02T00:46:55.526Z,18.90
2023-03-02T00:49:25.322Z,18.91
2023-03-02T00:51:53.740Z,18.90
2023-03-02T00:54:22.306Z,18.89
2023-03-02T00:56:50.953Z,18.88
2023-03-02T00:59:27.162Z,18.88
2023-03-02T01:02:16.680Z,18.86
2023-03-02T01:04:48.071Z,18.87
2023-03-02T01:07:18.578Z,18.87
2023-03-02T01:09:48.415Z,18.87
2023-03-02T01:12:17.298Z,18.87
2023-03-02T01:14:50.695Z,18.88
2023-03-02T01:17:22.061Z,18.90
2023-03-02T01:19:51.886Z,18.91
2023-03-02T01:22:22.061Z,18.91
2023-03-02T01:24:51.003Z,18.91
2023-03-02T01:27:19.505Z,18.92
2023-03-02T01:29:47.885Z,18.92
2023-03-02T01:32:16.359Z,18.92
2023-03-02T01:34:45.086Z,18.92
2023-03-02T01:37:14.863Z,18.92
2023-03-02T01:39:43.268Z,18.91
2023-03-02T01:42:11.666Z,18.92
2023-03-02T01:44:43.767Z,18.92
2023-03-02T01:47:20.427Z,18.91
2023-03-02T01:50:00.008Z,18.91
2023-03-02T01:52:34.645Z,18.91
2023-03-02T01:55:07.285Z,18.91
2023-03-02T01:57:43.440Z,18.90
2023-03-02T02:00:15.934Z,18.90
2023-03-02T02:02:44.894Z,18.90
2023-03-02T02:05:16.925Z,18.91
2023-03-02T02:07:47.480Z,18.90
2023-03-02T02:10:16.888Z,18.90
2023-03-02T02:12:45.339Z,18.90
2023-03-02T02:15:13.952Z,18.90
2023-03-02T02:17:43.276Z,18.89
2023-03-02T02:20:24.042Z,18.89
2023-03-02T02:23:03.537Z,18.90
2023-03-02T02:25:45.920Z,18.88
2023-03-02T02:28:20.043Z,18.89
2023-03-02T02:30:52.668Z,18.88
2023-03-02T02:33:26.155Z,18.88
2023-03-02T02:35:58.225Z,18.88
2023-03-02T02:38:26.835Z,18.88
2023-03-02T02:40:58.178Z,18.88
2023-03-02T02:43:33.699Z,18.88
2023-03-02T02:46:03.712Z,18.87
2023-03-02T02:48:33.340Z,18.87
2023-03-02T02:51:03.184Z,18.87
2023-03-02T02:53:38.498Z,18.88
2023-03-02T02:56:10.368Z,18.87
2023-03-02T02:58:44.176Z,18.86
2023-03-02T03:01:15.120Z,18.86
2023-03-02T03:03:51.152Z,18.86
2023-03-02T03:06:23.209Z,18.85
2023-03-02T03:08:55.879Z,18.85
2023-03-02T03:11:32.388Z,18.86
2023-03-02T03:14:09.904Z,18.85
2023-03-02T03:16:40.563Z,18.85
2023-03-02T03:19:16.753Z,18.85
2023-03-02T03:21:45.513Z,18.86
2023-03-02T03:24:14.411Z,18.85
2023-03-02T03:26:43.547Z,18.85
2023-03-02T03:29:15.247Z,18.84
2023-03-02T03:31:44.415Z,18.84
2023-03-02T03:34:14.177Z,18.84
2023-03-02T03:36:43.293Z,18.84
2023-03-02T03:39:12.814Z,18.83
2023-03-02T03:41:41.911Z,18.81
2023-03-02T03:44:11.568Z,18.83
2023-03-02T03:46:44.026Z,18.83
2023-03-02T03:49:13.167Z,18.82
2023-03-02T03:51:41.909Z,18.83
2023-03-02T03:54:11.109Z,18.83
2023-03-02T03:56:45.927Z,18.81
2023-03-02T03:59:16.908Z,18.82
2023-03-02T04:01:56.222Z,18.81
2023-03-02T04:04:28.933Z,18.82
2023-03-02T04:06:57.663Z,18.81
2023-03-02T04:09:27.676Z,18.81
2023-03-02T04:11:57.164Z,18.81
2023-03-02T04:14:26.788Z,18.80
2023-03-02T04:16:58.201Z,18.80
2023-03-02T04:19:27.464Z,18.81
2023-03-02T04:21:59.438Z,18.80
2023-03-02T04:24:28.353Z,18.81
2023-03-02T04:26:58.992Z,18.80
2023-03-02T04:29:27.843Z,18.80
2023-03-02T04:31:56.380Z,18.80
2023-03-02T04:34:28.290Z,18.80
2023-03-02T04:36:56.915Z,18.79
2023-03-02T04:39:25.851Z,18.78
2023-03-02T04:41:54.777Z,18.79
2023-03-02T04:44:23.254Z,18.79
2023-03-02T04:46:51.794Z,18.81
2023-03-02T04:49:21.561Z,18.82
2023-03-02T04:51:51.892Z,18.84
2023-03-02T04:54:22.823Z,18.87
2023-03-02T04:56:51.791Z,18.87
2023-03-02T04:59:23.936Z,18.89
2023-03-02T05:01:53.798Z,18.89
2023-03-02T05:04:22.632Z,18.89
2023-03-02T05:06:52.675Z,18.88
2023-03-02T05:09:27.043Z,18.88
2023-03-02T05:11:56.040Z,18.88
2023-03-02T05:14:25.492Z,18.87
2023-03-02T05:16:53.973Z,18.87
2023-03-02T05:19:22.631Z,18.87
2023-03-02T05:21:52.430Z,18.86
2023-03-02T05:24:20.831Z,18.84
2023-03-02T05:26:49.182Z,18.83
2023-03-02T05:29:17.565Z,18.84
2023-03-02T05:31:47.540Z,18.87
2023-03-02T05:34:17.655Z,18.90
2023-03-02T05:36:47.173Z,18.97
2023-03-02T05:39:16.908Z,19.04
2023-03-02T05:41:45.386Z,19.10
2023-03-02T05:44:13.772Z,19.17
2023-03-02T05:46:42.255Z,19.22
2023-03-02T05:49:10.734Z,19.26
2023-03-02T05:51:39.134Z,19.31
2023-03-02T05:54:07.618Z,19.43
2023-03-02T05:56:37.391Z,19.49
2023-03-02T05:59:05.864Z,19.50
2023-03-02T06:01:35.537Z,19.53
2023-03-02T06:04:04.190Z,19.54
2023-03-02T06:06:34.121Z,19.64
2023-03-02T06:09:02.770Z,19.66
2023-03-02T06:11:31.527Z,19.67
2023-03-02T06:14:01.361Z,19.67
2023-03-02T06:16:31.626Z,19.69
2023-03-02T06:19:00.416Z,19.73
2023-03-02T06:21:28.833Z,19.79
2023-03-02T06:23:57.246Z,19.85
2023-03-02T06:26:25.706Z,19.89
2023-03-02T06:28:54.258Z,19.89
2023-03-02T06:31:24.090Z,19.93
2023-03-02T06:33:53.234Z,19.98
2023-03-02T06:36:21.740Z,20.04
2023-03-02T06:38:50.618Z,20.08
2023-03-02T06:41:19.042Z,20.09
2023-03-02T06:43:47.531Z,20.22
2023-03-02T06:46:16.028Z,20.27
2023-03-02T06:48:45.867Z,20.26
2023-03-02T06:51:14.245Z,20.28
2023-03-02T06:53:42.705Z,20.31
2023-03-02T06:56:11.512Z,20.35
2023-03-02T06:58:40.016Z,20.39
2023-03-02T07:01:08.765Z,20.42
2023-03-02T07:03:37.365Z,20.42
2023-03-02T07:06:07.497Z,20.45
2023-03-02T07:08:35.915Z,20.47
2023-03-02T07:11:07.342Z,20.48
2023-03-02T07:13:37.855Z,20.48
2023-03-02T07:16:10.988Z,20.49
2023-03-02T07:18:39.644Z,20.55
2023-03-02T07:21:09.647Z,20.58
2023-03-02T07:23:38.020Z,20.62
2023-03-02T07:26:08.789Z,20.62
2023-03-02T07:28:39.388Z,20.61
2023-03-02T07:31:08.021Z,20.62
2023-03-02T07:33:36.544Z,20.64
2023-03-02T07:36:06.168Z,20.66
2023-03-02T07:38:37.805Z,20.67
2023-03-02T07:41:09.692Z,20.63
2023-03-02T07:43:38.758Z,20.60
2023-03-02T07:46:07.502Z,20.64
2023-03-02T07:48:36.442Z,20.67
2023-03-02T07:51:08.508Z,20.64
2023-03-02T07:53:38.573Z,20.61
2023-03-02T07:56:09.002Z,20.57
2023-03-02T07:58:37.495Z,20.52
2023-03-02T08:01:06.351Z,20.49
2023-03-02T08:03:34.700Z,20.47
2023-03-02T08:06:06.703Z,20.46
2023-03-02T08:08:35.703Z,20.46
2023-03-02T08:11:11.066Z,20.43
2023-03-02T08:13:39.533Z,20.39
2023-03-02T08:16:10.209Z,20.39
2023-03-02T08:18:39.773Z,20.41
2023-03-02T08:21:13.332Z,20.41
2023-03-02T08:23:42.513Z,20.45
2023-03-02T08:26:14.787Z,20.40
2023-03-02T08:28:44.992Z,20.45
2023-03-02T08:31:14.533Z,20.42
2023-03-02T08:33:43.246Z,20.38
2023-03-02T08:36:14.689Z,20.37
2023-03-02T08:38:43.728Z,20.35
2023-03-02T08:41:15.335Z,20.32
2023-03-02T08:43:44.084Z,20.30
2023-03-02T08:46:14.247Z,20.29
2023-03-02T08:48:42.994Z,20.25
2023-03-02T08:51:14.321Z,20.23
2023-03-02T08:53:44.491Z,20.20
2023-03-02T08:56:19.495Z,20.19
2023-03-02T08:58:48.174Z,20.18
2023-03-02T09:01:18.189Z,20.16
2023-03-02T09:03:46.744Z,20.14
2023-03-02T09:06:16.112Z,20.12
2023-03-02T09:08:44.802Z,20.10
2023-03-02T09:11:13.402Z,20.11
2023-03-02T09:13:43.379Z,20.09
2023-03-02T09:16:13.040Z,20.09
2023-03-02T09:18:42.087Z,20.07
2023-03-02T09:21:11.029Z,20.05
2023-03-02T09:23:39.563Z,20.03
2023-03-02T09:26:08.086Z,19.99
2023-03-02T09:28:37.472Z,19.97
2023-03-02T09:31:09.134Z,19.95
2023-03-02T09:33:38.048Z,19.93
2023-03-02T09:36:07.625Z,19.91
2023-03-02T09:38:36.115Z,19.89
2023-03-02T09:41:36.379Z,19.88
2023-03-02T09:44:16.263Z,19.84
2023-03-02T09:46:50.182Z,19.83
2023-03-02T09:49:31.163Z,19.82
2023-03-02T09:52:11.586Z,19.81
2023-03-02T09:54:41.422Z,19.80
2023-03-02T09:57:21.806Z,19.78
2023-03-02T09:59:55.124Z,19.77
2023-03-02T10:02:29.858Z,19.75
2023-03-02T10:05:00.742Z,19.74
2023-03-02T10:07:31.156Z,19.73
2023-03-02T10:10:05.423Z,19.74
2023-03-02T10:12:48.700Z,19.74
2023-03-02T10:15:23.198Z,19.73
2023-03-02T10:18:02.116Z,19.74
2023-03-02T10:20:35.750Z,19.73
2023-03-02T10:23:20.730Z,19.70
2023-03-02T10:25:53.371Z,19.66
2023-03-02T10:28:24.012Z,19.64
2023-03-02T10:30:58.704Z,19.59
2023-03-02T10:33:29.374Z,19.59
2023-03-02T10:36:01.008Z,19.56
2023-03-02T10:38:29.976Z,19.54
2023-03-02T10:41:01.609Z,19.53
2023-03-02T10:43:34.576Z,19.52
2023-03-02T10:46:05.372Z,19.51
2023-03-02T10:48:49.262Z,19.49
2023-03-02T10:51:26.785Z,19.47
2023-03-02T10:54:06.043Z,19.47
2023-03-02T10:56:35.360Z,19.46
2023-03-02T10:59:14.326Z,19.43
2023-03-02T11:01:42.792Z,19.43
2023-03-02T11:04:16.686Z,19.41
2023-03-02T11:06:45.199Z,19.41
2023-03-02T11:09:15.510Z,19.40
2023-03-02T11:11:58.849Z,19.39
2023-03-02T11:14:27.515Z,19.38
2023-03-02T11:16:55.963Z,19.39
2023-03-02T11:19:32.082Z,19.36
2023-03-02T11:22:11.109Z,19.37
2023-03-02T11:24:44.178Z,19.38
2023-03-02T11:27:19.948Z,19.37
2023-03-02T11:29:54.106Z,19.36
2023-03-02T11:32:26.134Z,19.35
2023-03-02T11:35:01.297Z,19.30
2023-03-02T11:37:35.960Z,19.33
2023-03-02T11:40:20.218Z,19.33
2023-03-02T11:42:49.437Z,19.32
2023-03-02T11:45:22.629Z,19.31
2023-03-02T11:48:02.610Z,19.32
2023-03-02T11:50:35.486Z,19.32
2023-03-02T11:53:08.982Z,19.30
2023-03-02T11:55:41.703Z,19.31
2023-03-02T11:58:18.436Z,19.31
2023-03-02T12:00:48.931Z,19.29
2023-03-02T12:03:23.702Z,19.28
2023-03-02T12:06:06.821Z,19.29
2023-03-02T12:08:39.943Z,19.28
2023-03-02T12:11:30.040Z,19.30
2023-03-02T12:14:03.494Z,19.33
2023-03-02T12:16:38.092Z,19.34
2023-03-02T12:19:15.122Z,19.36
2023-03-02T12:21:58.258Z,19.36
2023-03-02T12:24:29.376Z,19.37
2023-03-02T12:27:03.305Z,19.37
2023-03-02T12:29:40.402Z,19.38
2023-03-02T12:32:15.101Z,19.39
2023-03-02T12:34:46.376Z,19.39
2023-03-02T12:37:22.722Z,19.39
2023-03-02T12:40:25.382Z,19.40
2023-03-02T12:43:17.004Z,19.40
2023-03-02T12:45:59.690Z,19.39
2023-03-02T12:48:31.792Z,19.37
2023-03-02T12:51:01.861Z,19.35
2023-03-02T12:53:32.662Z,19.33
2023-03-02T12:56:01.102Z,19.33
2023-03-02T12:58:32.499Z,19.32
2023-03-02T13:01:03.308Z,19.31
2023-03-02T13:03:32.634Z,19.30
2023-03-02T13:06:03.335Z,19.29
2023-03-02T13:08:33.343Z,19.29
2023-03-02T13:11:03.374Z,19.27
2023-03-02T13:13:38.148Z,19.27
2023-03-02T13:16:08.983Z,19.23
2023-03-02T13:18:40.546Z,19.25
2023-03-02T13:21:14.943Z,19.24
2023-03-02T13:23:50.077Z,19.23
2023-03-02T13:26:26.574Z,19.23
2023-03-02T13:29:02.788Z,19.24
2023-03-02T13:31:32.023Z,19.24
2023-03-02T13:34:00.722Z,19.23
2023-03-02T13:36:32.157Z,19.23
2023-03-02T13:39:03.149Z,19.22
2023-03-02T13:41:33.200Z,19.21
2023-03-02T13:44:19.645Z,19.22
2023-03-02T13:46:48.827Z,19.21
2023-03-02T13:49:27.783Z,19.21
2023-03-02T13:52:01.250Z,19.21
2023-03-02T13:54:33.039Z,19.21
2023-03-02T13:57:03.667Z,19.18
2023-03-02T13:59:33.073Z,19.19
2023-03-02T14:02:01.591Z,19.18
2023-03-02T14:04:30.127Z,19.19
2023-03-02T14:06:58.567Z,19.18
2023-03-02T14:09:27.599Z,19.17
2023-03-02T14:11:58.019Z,19.17
2023-03-02T14:14:28.500Z,19.17
2023-03-02T14:16:57.541Z,19.19
2023-03-02T14:19:25.953Z,19.21
2023-03-02T14:21:54.322Z,19.23
2023-03-02T14:24:22.728Z,19.27
2023-03-02T14:26:51.228Z,19.28
2023-03-02T14:29:27.376Z,19.30
2023-03-02T14:31:57.310Z,19.29
2023-03-02T14:34:25.827Z,19.34
2023-03-02T14:36:58.049Z,19.34
2023-03-02T14:39:34.792Z,19.36
2023-03-02T14:42:06.705Z,19.38
2023-03-02T14:44:36.445Z,19.38
2023-03-02T14:47:05.020Z,19.39
2023-03-02T14:49:33.423Z,19.40
2023-03-02T14:52:05.154Z,19.42
2023-03-02T14:54:39.456Z,19.43
2023-03-02T14:57:17.955Z,19.44
2023-03-02T14:59:47.699Z,19.45
2023-03-02T15:02:25.174Z,19.48
2023-03-02T15:04:56.056Z,19.48
2023-03-02T15:07:26.306Z,19.49
2023-03-02T15:09:55.964Z,19.50
2023-03-02T15:12:25.026Z,19.51
2023-03-02T15:14:54.787Z,19.51
2023-03-02T15:17:23.218Z,19.54
2023-03-02T15:19:51.728Z,19.54
2023-03-02T15:22:20.219Z,19.55
2023-03-02T15:24:48.685Z,19.54
2023-03-02T15:27:19.480Z,19.55
2023-03-02T15:29:48.455Z,19.55
2023-03-02T15:32:18.672Z,19.54
2023-03-02T15:34:48.429Z,19.55
2023-03-02T15:37:17.125Z,19.55
2023-03-02T15:39:45.560Z,19.56
2023-03-02T15:42:14.180Z,19.54
2023-03-02T15:44:42.916Z,19.53
2023-03-02T15:47:12.049Z,19.51
2023-03-02T15:49:41.824Z,19.46
2023-03-02T15:52:12.306Z,19.41
2023-03-02T15:54:41.164Z,19.36
2023-03-02T15:57:10.179Z,19.32
2023-03-02T15:59:38.691Z,19.32
2023-03-02T16:02:07.277Z,19.32
2023-03-02T16:04:35.779Z,19.31
2023-03-02T16:07:05.830Z,19.31
2023-03-02T16:09:34.315Z,19.30
2023-03-02T16:12:02.749Z,19.30
2023-03-02T16:14:31.190Z,19.29
2023-03-02T16:16:59.645Z,19.28
2023-03-02T16:19:28.341Z,19.28
2023-03-02T16:21:57.037Z,19.27
2023-03-02T16:24:27.195Z,19.27
2023-03-02T16:26:55.655Z,19.25
2023-03-02T16:29:24.588Z,19.25
2023-03-02T16:31:53.494Z,19.25
2023-03-02T16:34:22.254Z,19.25
2023-03-02T16:36:51.099Z,19.25
2023-03-02T16:39:19.696Z,19.24
2023-03-02T16:41:51.229Z,19.25
2023-03-02T16:44:20.175Z,19.24
2023-03-02T16:46:48.673Z,19.19
2023-03-02T16:49:17.154Z,19.14
2023-03-02T16:51:45.772Z,19.08
2023-03-02T16:54:17.016Z,19.02
2023-03-02T16:56:47.184Z,19.00
2023-03-02T16:59:17.447Z,18.99
2023-03-02T17:01:45.947Z,19.01
2023-03-02T17:04:14.444Z,18.99
2023-03-02T17:06:59.844Z,18.89
2023-03-02T17:09:29.123Z,18.80
2023-03-02T17:11:57.964Z,18.73
2023-03-02T17:14:28.056Z,18.72
2023-03-02T17:16:57.808Z,18.69
2023-03-02T17:19:29.354Z,18.69
2023-03-02T17:21:58.278Z,18.69
2023-03-02T17:24:26.872Z,18.69
2023-03-02T17:26:55.288Z,18.69
2023-03-02T17:29:24.232Z,18.70
2023-03-02T17:31:54.219Z,18.71
2023-03-02T17:34:22.750Z,18.74
2023-03-02T17:36:51.168Z,18.76
2023-03-02T17:39:19.655Z,18.78
2023-03-02T17:41:48.116Z,18.79
2023-03-02T17:44:16.526Z,18.79
2023-03-02T17:46:45.854Z,18.81
2023-03-02T17:49:15.629Z,18.85
2023-03-02T17:51:44.104Z,18.88
2023-03-02T17:54:12.761Z,18.91
2023-03-02T17:56:41.355Z,19.01
2023-03-02T17:59:12.018Z,19.06
2023-03-02T18:01:42.277Z,19.09
2023-03-02T18:04:10.799Z,19.12
2023-03-02T18:06:40.738Z,19.15
2023-03-02T18:09:09.487Z,19.17
2023-03-02T18:11:38.306Z,19.18
2023-03-02T18:14:06.758Z,19.20
2023-03-02T18:16:36.566Z,19.20
2023-03-02T18:19:05.162Z,19.21
2023-03-02T18:21:34.462Z,19.21
2023-03-02T18:24:05.314Z,19.23
2023-03-02T18:26:33.758Z,19.23
2023-03-02T18:29:02.230Z,19.23
2023-03-02T18:31:31.318Z,19.25
2023-03-02T18:33:59.825Z,19.29
2023-03-02T18:36:28.664Z,19.30
2023-03-02T18:38:57.333Z,19.31
2023-03-02T18:41:27.204Z,19.34
2023-03-02T18:43:55.655Z,19.33
2023-03-02T18:46:25.955Z,19.34
2023-03-02T18:48:56.169Z,19.35
2023-03-02T18:51:25.853Z,19.37
2023-03-02T18:53:55.078Z,19.38
2023-03-02T18:56:23.969Z,19.37
2023-03-02T18:58:54.500Z,19.38
2023-03-02T19:01:22.999Z,19.40
2023-03-02T19:03:53.230Z,19.39
2023-03-02T19:06:23.011Z,19.39
2023-03-02T19:08:51.479Z,19.40
2023-03-02T19:11:19.923Z,19.40
2023-03-02T19:13:48.401Z,19.41
2023-03-02T19:16:18.707Z,19.41
2023-03-02T19:18:47.249Z,19.42
2023-03-02T19:21:15.757Z,19.42
2023-03-02T19:23:46.242Z,19.43
2023-03-02T19:26:15.167Z,19.43
2023-03-02T19:28:43.701Z,19.43
2023-03-02T19:31:12.610Z,19.43
2023-03-02T19:33:44.921Z,19.44
2023-03-02T19:36:14.414Z,19.44
2023-03-02T19:38:44.342Z,19.45
2023-03-02T19:41:15.090Z,19.44
2023-03-02T19:43:46.078Z,19.45
2023-03-02T19:46:15.831Z,19.44
2023-03-02T19:48:45.903Z,19.45
2023-03-02T19:51:16.494Z,19.46
2023-03-02T19:53:46.957Z,19.46
2023-03-02T19:56:16.654Z,19.47
2023-03-02T19:58:49.827Z,19.48
2023-03-02T20:01:21.624Z,19.47
2023-03-02T20:03:52.979Z,19.47
2023-03-02T20:06:22.465Z,19.47
2023-03-02T20:08:51.109Z,19.47
2023-03-02T20:11:19.908Z,19.47
2023-03-02T20:13:50.576Z,19.49
2023-03-02T20:16:22.848Z,19.47
2023-03-02T20:18:54.931Z,19.48
2023-03-02T20:21:26.162Z,19.49
2023-03-02T20:23:54.848Z,19.51
2023-03-02T20:26:24.454Z,19.50
2023-03-02T20:28:55.612Z,19.50
2023-03-02T20:31:25.642Z,19.49
2023-03-02T20:33:56.372Z,19.50
2023-03-02T20:36:29.503Z,19.51
2023-03-02T20:39:00.430Z,19.51
2023-03-02T20:41:30.206Z,19.51
2023-03-02T20:43:58.734Z,19.51
2023-03-02T20:46:30.204Z,19.51
2023-03-02T20:49:00.097Z,19.51
2023-03-02T20:51:30.408Z,19.52
2023-03-02T20:53:59.024Z,19.52
2023-03-02T20:56:27.555Z,19.50
2023-03-02T20:58:56.138Z,19.53
2023-03-02T21:01:25.058Z,19.52
2023-03-02T21:03:53.738Z,19.52
2023-03-02T21:06:23.653Z,19.52
2023-03-02T21:08:52.549Z,19.54
2023-03-02T21:11:22.572Z,19.53
2023-03-02T21:13:51.083Z,19.53
2023-03-02T21:16:22.619Z,19.51
2023-03-02T21:18:51.509Z,19.52
2023-03-02T21:21:24.884Z,19.52
2023-03-02T21:23:59.719Z,19.52
2023-03-02T21:26:28.504Z,19.52
2023-03-02T21:28:56.912Z,19.51
2023-03-02T21:31:25.605Z,19.48
2023-03-02T21:33:54.128Z,19.44
2023-03-02T21:36:24.738Z,19.40
2023-03-02T21:38:53.444Z,19.39
2023-03-02T21:41:23.921Z,19.34
2023-03-02T21:43:52.542Z,19.32
2023-03-02T21:46:23.177Z,19.30
2023-03-02T21:48:52.370Z,19.29
2023-03-02T21:51:21.388Z,19.27
2023-03-02T21:53:50.008Z,19.24
2023-03-02T21:56:21.542Z,19.23
2023-03-02T21:58:52.759Z,19.22
2023-03-02T22:01:22.389Z,19.20
2023-03-02T22:03:51.033Z,19.18
2023-03-02T22:06:21.541Z,19.19
2023-03-02T22:08:50.599Z,19.17
2023-03-02T22:11:22.707Z,19.14
2023-03-02T22:13:55.262Z,19.14
2023-03-02T22:16:26.229Z,19.12
2023-03-02T22:18:56.390Z,19.12
2023-03-02T22:21:29.985Z,19.10
2023-03-02T22:24:10.765Z,19.10
2023-03-02T22:26:42.045Z,19.09
2023-03-02T22:29:15.836Z,19.07
2023-03-02T22:31:47.648Z,19.07
2023-03-02T22:34:20.604Z,19.05
2023-03-02T22:36:49.318Z,19.04
2023-03-02T22:39:22.998Z,19.00
2023-03-02T22:41:54.679Z,19.00
2023-03-02T22:44:25.806Z,18.97
2023-03-02T22:46:57.448Z,18.95
2023-03-02T22:49:25.922Z,18.93
2023-03-02T22:51:54.936Z,18.92
2023-03-02T22:54:25.165Z,18.91
2023-03-02T22:56:56.952Z,18.90
2023-03-02T22:59:29.199Z,18.89
2023-03-02T23:02:00.966Z,18.87
2023-03-02T23:04:32.959Z,18.87
2023-03-02T23:07:02.900Z,18.84
2023-03-02T23:09:32.936Z,18.84
2023-03-02T23:12:06.327Z,18.84
2023-03-02T23:14:45.730Z,18.82
2023-03-02T23:17:18.929Z,18.83
2023-03-02T23:19:47.808Z,18.82
2023-03-02T23:22:16.276Z,18.83
2023-03-02T23:24:44.713Z,18.82
2023-03-02T23:27:13.299Z,18.82
2023-03-02T23:29:43.143Z,18.81
2023-03-02T23:32:11.678Z,18.81
2023-03-02T23:34:40.210Z,18.80
2023-03-02T23:37:08.930Z,18.78
2023-03-02T23:39:37.726Z,18.79
2023-03-02T23:42:06.456Z,18.78
2023-03-02T23:44:35.198Z,18.77
2023-03-02T23:47:05.125Z,18.77
2023-03-02T23:49:33.501Z,18.77
2023-03-02T23:52:01.866Z,18.75
2023-03-02T23:54:30.227Z,18.75
2023-03-02T23:56:58.643Z,18.74
2023-03-02T23:59:27.087Z,18.74
